Details From KPIB - HATTIESBURG LAUREL RGNL
To KLCH - Lake Charles Rgnl
Flight Number -
Tags decoded
Created
Modified
Stats Distance 217 nm / 402 km
Max Altitude 0 ft / 0 m
Waypoints 4
Social Downloads 2
Likes 0
Share VATSIM

Download

Looking for another format? Having issues loading an existing format? Contact us
Advertisement - Login to hide

Notes

Requested: KPIB MCB LCH HEIGH KLCH

Route

KPIB MCB LCH KLCH

ID Type Via Altitude Latitude Longitude Leg Dist Tot Dist Heading (true) Name
O KPIB APT - 0 ft / 0 m 31.46715˚ -89.33706˚ - 0 nm - HATTIESBURG LAUREL RGNL
MCB VOR - 0 ft / 0 m 31.30444˚ -90.25819˚ 48 nm 48 nm 259° / 258° MC COMB VORTAC
LCH VOR - 0 ft / 0 m 30.14150˚ -93.10556˚ 162 nm 210 nm 245° / 244° LAKE CHARLES VORTAC
O KLCH APT - 0 ft / 0 m 30.12678˚ -93.22340˚ 6 nm 217 nm 262° / 262° Lake Charles Rgnl

Altitude Profile

Advertisement - Login to hide

Weather


0- 5 10 15 20 25 30 35+ Temperature / ° C

Clouds and Precipitation
Forecast for 2018-05-26 12:00 UTC. Updated 3 hours ago

Ground ~20,000 ft ~40,000 ft Winds

KPIB

Details ICAO KPIB (PIB)
Name HATTIESBURG LAUREL RGNL
Region United States
Timezone America/Chicago (UTC-5.0)
Stats Elevation 297 ft / 91 m (AMSL)
Location 31.467146° -89.337058°
Runways 1
Magnetic Variation 1.521° W

METAR

KPIB 261356Z AUTO 00000KT 10SM SCT003 23/22 A2995 RMK AO2 SLP141 T02280217

Decode

TAF

Not found

Departure Runways

ID Width Length Bearing (true) Bearing (mag) Surface Threshold Offset Overrun Length
18 150 ft / 46 m 6,523 ft / 1,988 m 179.94° 181.46° Asphalt 0 ft / 0 m 200 ft / 61 m
36 150 ft / 46 m 6,523 ft / 1,988 m 359.94° 1.46° Asphalt 0 ft / 0 m 0 ft / 0 m

KLCH

Details ICAO KLCH (LCH)
Name Lake Charles Rgnl
Region United States
Timezone America/Chicago (UTC-5.0)
Stats Elevation 15 ft / 5 m (AMSL)
Location 30.126783° -93.223397°
Runways 2
Magnetic Variation 1.112° E

METAR

KLCH 261353Z 00000KT 10SM CLR 27/23 A2987 RMK AO2 LTG DSNT SE SLP123 T02670228

Decode

TAF

TAF KLCH 261132Z 2612/2712 VRB03KT P6SM SCT020 FM261600 25007KT P6SM VCTS SCT035CB BKN080 TEMPO 2620/2624 2SM TSRA BKN025CB OVC080 FM270100 VRB03KT P6SM SKC

Decode

Destination Runways

ID Width Length Bearing (true) Bearing (mag) Surface Threshold Offset Overrun Length
05 98 ft / 30 m 5,201 ft / 1,585 m 51.76° 50.65° Asphalt 0 ft / 0 m 0 ft / 0 m
15 151 ft / 46 m 6,515 ft / 1,986 m 154.80° 153.69° Concrete 0 ft / 0 m 0 ft / 0 m
23 98 ft / 30 m 5,201 ft / 1,585 m 231.77° 230.66° Asphalt 0 ft / 0 m 0 ft / 0 m
33 151 ft / 46 m 6,515 ft / 1,986 m 334.81° 333.70° Concrete 0 ft / 0 m 0 ft / 0 m

Approach Navaids

Runway Type Ident Frequency Range Bearing (true) Bearing (mag) Slope Elevation
15 Localiser ILCH 109.10 MHz 18 nm / 33 km 154.81° 153.70° - 15 ft / 5 m (AMSL)
15 Glidescope ILCH 109.10 MHz 10 nm / 19 km 154.80° 153.69° 3.00° 12 ft / 4 m (AMSL)
15 DME ILCH 109.10 MHz 18 nm / 33 km - - - 15 ft / 5 m (AMSL)